sensor_id;sensor_type;location;lat;lon;timestamp;temperature;humidity
68801;SHT31;55784;50.734;7.086;2022-08-05T00:11:48;23.29;79.25
68801;SHT31;55784;50.734;7.086;2022-08-05T00:14:14;23.29;79.99
68801;SHT31;55784;50.734;7.086;2022-08-05T00:16:40;23.25;80.59
68801;SHT31;55784;50.734;7.086;2022-08-05T00:19:05;23.24;79.97
68801;SHT31;55784;50.734;7.086;2022-08-05T00:21:30;23.14;79.72
68801;SHT31;55784;50.734;7.086;2022-08-05T00:23:56;23.10;80.05
68801;SHT31;55784;50.734;7.086;2022-08-05T00:26:24;23.08;80.33
68801;SHT31;55784;50.734;7.086;2022-08-05T00:28:50;23.07;80.76
68801;SHT31;55784;50.734;7.086;2022-08-05T00:31:16;23.07;80.75
68801;SHT31;55784;50.734;7.086;2022-08-05T00:33:41;23.02;80.83
68801;SHT31;55784;50.734;7.086;2022-08-05T00:36:06;22.98;81.14
68801;SHT31;55784;50.734;7.086;2022-08-05T00:38:32;22.95;80.83
68801;SHT31;55784;50.734;7.086;2022-08-05T00:44:10;22.87;81.28
68801;SHT31;55784;50.734;7.086;2022-08-05T00:46:35;22.81;81.30
68801;SHT31;55784;50.734;7.086;2022-08-05T00:49:04;22.75;81.77
68801;SHT31;55784;50.734;7.086;2022-08-05T00:51:29;22.68;81.95
68801;SHT31;55784;50.734;7.086;2022-08-05T00:53:57;22.64;81.99
68801;SHT31;55784;50.734;7.086;2022-08-05T00:56:23;22.61;81.93
68801;SHT31;55784;50.734;7.086;2022-08-05T00:58:48;22.59;81.84
68801;SHT31;55784;50.734;7.086;2022-08-05T01:01:14;22.53;82.15
68801;SHT31;55784;50.734;7.086;2022-08-05T01:03:41;22.47;82.49
68801;SHT31;55784;50.734;7.086;2022-08-05T01:06:16;22.46;82.84
68801;SHT31;55784;50.734;7.086;2022-08-05T01:08:42;22.44;83.23
68801;SHT31;55784;50.734;7.086;2022-08-05T01:11:22;22.40;83.63
68801;SHT31;55784;50.734;7.086;2022-08-05T01:16:49;22.32;83.81
68801;SHT31;55784;50.734;7.086;2022-08-05T01:19:51;22.23;84.10
68801;SHT31;55784;50.734;7.086;2022-08-05T01:25:45;22.16;83.82
68801;SHT31;55784;50.734;7.086;2022-08-05T01:31:08;22.13;83.11
68801;SHT31;55784;50.734;7.086;2022-08-05T01:33:48;22.09;82.97
68801;SHT31;55784;50.734;7.086;2022-08-05T01:39:59;21.99;82.59
68801;SHT31;55784;50.734;7.086;2022-08-05T01:46:40;21.89;82.03
68801;SHT31;55784;50.734;7.086;2022-08-05T01:49:23;21.78;82.62
68801;SHT31;55784;50.734;7.086;2022-08-05T01:52:27;21.68;83.59
68801;SHT31;55784;50.734;7.086;2022-08-05T01:55:26;21.58;83.09
68801;SHT31;55784;50.734;7.086;2022-08-05T01:58:14;21.54;82.22
68801;SHT31;55784;50.734;7.086;2022-08-05T02:01:01;21.62;82.38
68801;SHT31;55784;50.734;7.086;2022-08-05T02:04:06;21.62;82.06
68801;SHT31;55784;50.734;7.086;2022-08-05T02:07:20;21.61;82.66
68801;SHT31;55784;50.734;7.086;2022-08-05T02:09:52;21.55;82.35
68801;SHT31;55784;50.734;7.086;2022-08-05T02:12:37;21.41;82.29
68801;SHT31;55784;50.734;7.086;2022-08-05T02:15:21;21.34;80.85
68801;SHT31;55784;50.734;7.086;2022-08-05T02:18:14;21.28;80.69
68801;SHT31;55784;50.734;7.086;2022-08-05T02:21:04;21.15;80.66
68801;SHT31;55784;50.734;7.086;2022-08-05T02:23:32;21.27;80.71
68801;SHT31;55784;50.734;7.086;2022-08-05T02:26:04;21.25;80.05
68801;SHT31;55784;50.734;7.086;2022-08-05T02:28:33;21.07;80.25
68801;SHT31;55784;50.734;7.086;2022-08-05T02:31:09;21.06;79.28
68801;SHT31;55784;50.734;7.086;2022-08-05T02:33:38;20.97;79.38
68801;SHT31;55784;50.734;7.086;2022-08-05T02:36:08;20.96;79.33
68801;SHT31;55784;50.734;7.086;2022-08-05T02:38:34;20.86;79.55
68801;SHT31;55784;50.734;7.086;2022-08-05T02:41:02;20.84;79.90
68801;SHT31;55784;50.734;7.086;2022-08-05T02:43:28;20.83;79.82
68801;SHT31;55784;50.734;7.086;2022-08-05T02:45:54;20.80;80.02
68801;SHT31;55784;50.734;7.086;2022-08-05T02:48:21;20.80;79.69
68801;SHT31;55784;50.734;7.086;2022-08-05T02:50:48;20.74;80.19
68801;SHT31;55784;50.734;7.086;2022-08-05T02:53:15;20.72;80.31
68801;SHT31;55784;50.734;7.086;2022-08-05T02:55:44;20.69;80.33
68801;SHT31;55784;50.734;7.086;2022-08-05T02:58:12;20.63;80.50
68801;SHT31;55784;50.734;7.086;2022-08-05T03:00:39;20.52;80.99
68801;SHT31;55784;50.734;7.086;2022-08-05T03:03:05;20.59;80.96
68801;SHT31;55784;50.734;7.086;2022-08-05T03:05:31;20.70;80.83
68801;SHT31;55784;50.734;7.086;2022-08-05T03:07:56;20.72;81.26
68801;SHT31;55784;50.734;7.086;2022-08-05T03:10:22;20.73;81.43
68801;SHT31;55784;50.734;7.086;2022-08-05T03:12:49;20.64;82.13
68801;SHT31;55784;50.734;7.086;2022-08-05T03:15:15;20.62;81.98
68801;SHT31;55784;50.734;7.086;2022-08-05T03:17:40;20.64;82.13
68801;SHT31;55784;50.734;7.086;2022-08-05T03:20:05;20.69;82.32
68801;SHT31;55784;50.734;7.086;2022-08-05T03:22:32;20.70;81.88
68801;SHT31;55784;50.734;7.086;2022-08-05T03:24:57;20.69;81.76
68801;SHT31;55784;50.734;7.086;2022-08-05T03:27:23;20.60;81.82
68801;SHT31;55784;50.734;7.086;2022-08-05T03:29:49;20.57;81.83
68801;SHT31;55784;50.734;7.086;2022-08-05T03:32:15;20.43;82.56
68801;SHT31;55784;50.734;7.086;2022-08-05T03:34:42;20.52;82.65
68801;SHT31;55784;50.734;7.086;2022-08-05T03:37:07;20.59;83.03
68801;SHT31;55784;50.734;7.086;2022-08-05T03:39:33;20.56;82.93
68801;SHT31;55784;50.734;7.086;2022-08-05T03:41:58;20.54;82.76
68801;SHT31;55784;50.734;7.086;2022-08-05T03:44:24;20.53;83.12
68801;SHT31;55784;50.734;7.086;2022-08-05T03:46:49;20.36;83.61
68801;SHT31;55784;50.734;7.086;2022-08-05T03:49:15;20.39;84.50
68801;SHT31;55784;50.734;7.086;2022-08-05T03:52:01;20.47;85.12
68801;SHT31;55784;50.734;7.086;2022-08-05T03:54:33;20.49;85.71
68801;SHT31;55784;50.734;7.086;2022-08-05T03:57:01;20.50;85.74
68801;SHT31;55784;50.734;7.086;2022-08-05T03:59:33;20.54;84.96
68801;SHT31;55784;50.734;7.086;2022-08-05T04:02:00;20.57;86.09
68801;SHT31;55784;50.734;7.086;2022-08-05T04:04:27;20.54;86.28
68801;SHT31;55784;50.734;7.086;2022-08-05T04:06:53;20.50;85.84
68801;SHT31;55784;50.734;7.086;2022-08-05T04:09:19;20.47;85.62
68801;SHT31;55784;50.734;7.086;2022-08-05T04:11:45;20.43;85.50
68801;SHT31;55784;50.734;7.086;2022-08-05T04:14:10;20.43;86.03
68801;SHT31;55784;50.734;7.086;2022-08-05T04:16:36;20.42;85.35
68801;SHT31;55784;50.734;7.086;2022-08-05T04:19:02;20.47;86.14
68801;SHT31;55784;50.734;7.086;2022-08-05T04:21:28;20.47;85.42
68801;SHT31;55784;50.734;7.086;2022-08-05T04:23:54;20.49;85.41
68801;SHT31;55784;50.734;7.086;2022-08-05T04:26:19;20.46;85.78
68801;SHT31;55784;50.734;7.086;2022-08-05T04:28:44;20.40;85.65
68801;SHT31;55784;50.734;7.086;2022-08-05T04:31:10;20.32;86.30
68801;SHT31;55784;50.734;7.086;2022-08-05T04:33:35;20.32;86.55
68801;SHT31;55784;50.734;7.086;2022-08-05T04:36:01;20.33;86.97
68801;SHT31;55784;50.734;7.086;2022-08-05T04:38:26;20.30;86.69
68801;SHT31;55784;50.734;7.086;2022-08-05T04:40:51;20.28;86.73
68801;SHT31;55784;50.734;7.086;2022-08-05T04:43:16;20.33;86.80
68801;SHT31;55784;50.734;7.086;2022-08-05T04:45:42;20.37;86.88
68801;SHT31;55784;50.734;7.086;2022-08-05T04:48:10;20.42;86.62
68801;SHT31;55784;50.734;7.086;2022-08-05T04:53:06;20.47;86.46
68801;SHT31;55784;50.734;7.086;2022-08-05T04:55:31;20.57;85.91
68801;SHT31;55784;50.734;7.086;2022-08-05T04:57:57;20.69;84.97
68801;SHT31;55784;50.734;7.086;2022-08-05T05:00:22;20.74;84.74
68801;SHT31;55784;50.734;7.086;2022-08-05T05:02:47;20.59;85.17
68801;SHT31;55784;50.734;7.086;2022-08-05T05:05:13;20.44;85.35
68801;SHT31;55784;50.734;7.086;2022-08-05T05:07:38;20.30;85.70
68801;SHT31;55784;50.734;7.086;2022-08-05T05:10:03;20.32;85.90
68801;SHT31;55784;50.734;7.086;2022-08-05T05:12:30;20.30;85.83
68801;SHT31;55784;50.734;7.086;2022-08-05T05:14:56;20.22;87.13
68801;SHT31;55784;50.734;7.086;2022-08-05T05:17:21;20.21;87.55
68801;SHT31;55784;50.734;7.086;2022-08-05T05:19:47;20.21;87.33
68801;SHT31;55784;50.734;7.086;2022-08-05T05:22:12;20.11;87.43
68801;SHT31;55784;50.734;7.086;2022-08-05T05:24:37;19.86;87.53
68801;SHT31;55784;50.734;7.086;2022-08-05T05:27:03;19.85;88.18
68801;SHT31;55784;50.734;7.086;2022-08-05T05:29:28;19.89;88.13
68801;SHT31;55784;50.734;7.086;2022-08-05T05:31:53;19.89;88.44
68801;SHT31;55784;50.734;7.086;2022-08-05T05:34:21;19.92;87.81
68801;SHT31;55784;50.734;7.086;2022-08-05T05:36:46;19.89;87.87
68801;SHT31;55784;50.734;7.086;2022-08-05T05:39:11;19.95;87.76
68801;SHT31;55784;50.734;7.086;2022-08-05T05:41:37;19.99;87.62
68801;SHT31;55784;50.734;7.086;2022-08-05T05:44:02;20.09;87.82
68801;SHT31;55784;50.734;7.086;2022-08-05T05:46:28;20.05;87.62
68801;SHT31;55784;50.734;7.086;2022-08-05T05:48:53;20.13;86.27
68801;SHT31;55784;50.734;7.086;2022-08-05T05:51:20;20.05;87.58
68801;SHT31;55784;50.734;7.086;2022-08-05T05:53:45;20.15;86.29
68801;SHT31;55784;50.734;7.086;2022-08-05T05:56:11;20.22;86.49
68801;SHT31;55784;50.734;7.086;2022-08-05T05:58:36;20.35;86.14
68801;SHT31;55784;50.734;7.086;2022-08-05T06:01:01;20.21;85.11
68801;SHT31;55784;50.734;7.086;2022-08-05T06:03:27;20.47;86.12
68801;SHT31;55784;50.734;7.086;2022-08-05T06:05:52;20.60;84.70
68801;SHT31;55784;50.734;7.086;2022-08-05T06:08:17;20.93;82.97
68801;SHT31;55784;50.734;7.086;2022-08-05T06:10:42;21.25;82.09
68801;SHT31;55784;50.734;7.086;2022-08-05T06:13:08;21.23;82.79
68801;SHT31;55784;50.734;7.086;2022-08-05T06:15:33;21.08;81.95
68801;SHT31;55784;50.734;7.086;2022-08-05T06:17:58;21.47;81.74
68801;SHT31;55784;50.734;7.086;2022-08-05T06:20:24;21.71;79.98
68801;SHT31;55784;50.734;7.086;2022-08-05T06:22:49;21.68;79.48
68801;SHT31;55784;50.734;7.086;2022-08-05T06:25:14;21.82;79.82
68801;SHT31;55784;50.734;7.086;2022-08-05T06:27:39;22.14;79.05
68801;SHT31;55784;50.734;7.086;2022-08-05T06:30:06;22.33;78.63
68801;SHT31;55784;50.734;7.086;2022-08-05T06:32:32;22.53;78.17
68801;SHT31;55784;50.734;7.086;2022-08-05T06:34:57;22.24;78.55
68801;SHT31;55784;50.734;7.086;2022-08-05T06:37:24;22.29;79.32
68801;SHT31;55784;50.734;7.086;2022-08-05T06:39:50;22.21;79.55
68801;SHT31;55784;50.734;7.086;2022-08-05T06:42:15;22.14;80.29
68801;SHT31;55784;50.734;7.086;2022-08-05T06:44:41;21.89;80.80
68801;SHT31;55784;50.734;7.086;2022-08-05T06:47:06;21.83;80.83
68801;SHT31;55784;50.734;7.086;2022-08-05T06:49:37;21.47;81.18
68801;SHT31;55784;50.734;7.086;2022-08-05T06:52:02;21.32;82.11
68801;SHT31;55784;50.734;7.086;2022-08-05T06:54:28;21.41;80.93
68801;SHT31;55784;50.734;7.086;2022-08-05T06:56:53;21.23;82.21
68801;SHT31;55784;50.734;7.086;2022-08-05T06:59:18;21.34;82.26
68801;SHT31;55784;50.734;7.086;2022-08-05T07:01:43;21.23;82.81
68801;SHT31;55784;50.734;7.086;2022-08-05T07:04:09;21.11;83.30
68801;SHT31;55784;50.734;7.086;2022-08-05T07:06:34;21.21;83.39
68801;SHT31;55784;50.734;7.086;2022-08-05T07:08:59;21.48;82.72
68801;SHT31;55784;50.734;7.086;2022-08-05T07:11:25;21.57;81.61
68801;SHT31;55784;50.734;7.086;2022-08-05T07:13:53;21.59;81.99
68801;SHT31;55784;50.734;7.086;2022-08-05T07:16:37;21.57;81.86
68801;SHT31;55784;50.734;7.086;2022-08-05T07:19:19;21.57;81.06
68801;SHT31;55784;50.734;7.086;2022-08-05T07:21:48;21.62;80.48
68801;SHT31;55784;50.734;7.086;2022-08-05T07:24:15;21.86;79.95
68801;SHT31;55784;50.734;7.086;2022-08-05T07:26:41;21.83;80.25
68801;SHT31;55784;50.734;7.086;2022-08-05T07:29:07;21.82;80.56
68801;SHT31;55784;50.734;7.086;2022-08-05T07:31:33;21.71;80.73
68801;SHT31;55784;50.734;7.086;2022-08-05T07:33:58;21.68;80.56
68801;SHT31;55784;50.734;7.086;2022-08-05T07:36:24;21.39;81.56
68801;SHT31;55784;50.734;7.086;2022-08-05T07:38:49;21.35;82.14
68801;SHT31;55784;50.734;7.086;2022-08-05T07:41:17;21.62;80.25
68801;SHT31;55784;50.734;7.086;2022-08-05T07:43:42;22.06;79.63
68801;SHT31;55784;50.734;7.086;2022-08-05T07:46:08;21.93;79.56
68801;SHT31;55784;50.734;7.086;2022-08-05T07:48:33;22.10;79.23
68801;SHT31;55784;50.734;7.086;2022-08-05T07:50:59;22.13;78.73
68801;SHT31;55784;50.734;7.086;2022-08-05T07:53:24;22.44;77.94
68801;SHT31;55784;50.734;7.086;2022-08-05T07:55:50;22.54;77.73
68801;SHT31;55784;50.734;7.086;2022-08-05T07:58:15;22.51;77.27
68801;SHT31;55784;50.734;7.086;2022-08-05T08:00:41;22.63;77.14
68801;SHT31;55784;50.734;7.086;2022-08-05T08:03:10;22.90;76.32
68801;SHT31;55784;50.734;7.086;2022-08-05T08:05:36;22.60;77.22
68801;SHT31;55784;50.734;7.086;2022-08-05T08:08:04;22.47;77.34
68801;SHT31;55784;50.734;7.086;2022-08-05T08:10:33;22.49;77.39
68801;SHT31;55784;50.734;7.086;2022-08-05T08:12:58;22.12;78.04
68801;SHT31;55784;50.734;7.086;2022-08-05T08:15:23;21.95;78.78
68801;SHT31;55784;50.734;7.086;2022-08-05T08:17:48;22.13;79.00
68801;SHT31;55784;50.734;7.086;2022-08-05T08:20:14;22.49;78.03
68801;SHT31;55784;50.734;7.086;2022-08-05T08:22:39;22.61;77.01
68801;SHT31;55784;50.734;7.086;2022-08-05T08:25:05;22.51;77.07
68801;SHT31;55784;50.734;7.086;2022-08-05T08:27:31;22.83;75.75
68801;SHT31;55784;50.734;7.086;2022-08-05T08:29:56;22.92;75.48
68801;SHT31;55784;50.734;7.086;2022-08-05T08:32:22;22.80;75.65
68801;SHT31;55784;50.734;7.086;2022-08-05T08:34:48;22.60;76.55
68801;SHT31;55784;50.734;7.086;2022-08-05T08:37:15;22.54;76.63
68801;SHT31;55784;50.734;7.086;2022-08-05T08:39:40;22.19;77.26
68801;SHT31;55784;50.734;7.086;2022-08-05T08:42:08;22.12;77.92
68801;SHT31;55784;50.734;7.086;2022-08-05T08:44:34;22.09;78.13
68801;SHT31;55784;50.734;7.086;2022-08-05T08:47:01;22.19;78.04
68801;SHT31;55784;50.734;7.086;2022-08-05T08:49:27;21.96;78.05
68801;SHT31;55784;50.734;7.086;2022-08-05T08:52:12;21.72;78.50
68801;SHT31;55784;50.734;7.086;2022-08-05T08:54:38;21.66;79.29
68801;SHT31;55784;50.734;7.086;2022-08-05T08:57:05;21.54;79.37
68801;SHT31;55784;50.734;7.086;2022-08-05T08:59:31;21.48;79.79
68801;SHT31;55784;50.734;7.086;2022-08-05T09:01:56;21.57;79.89
68801;SHT31;55784;50.734;7.086;2022-08-05T09:04:22;21.45;80.23
68801;SHT31;55784;50.734;7.086;2022-08-05T09:06:48;21.45;81.00
68801;SHT31;55784;50.734;7.086;2022-08-05T09:09:13;21.48;81.10
68801;SHT31;55784;50.734;7.086;2022-08-05T09:11:40;21.55;81.02
68801;SHT31;55784;50.734;7.086;2022-08-05T09:14:05;21.54;80.43
68801;SHT31;55784;50.734;7.086;2022-08-05T09:16:31;21.31;81.37
68801;SHT31;55784;50.734;7.086;2022-08-05T09:18:57;21.12;82.84
68801;SHT31;55784;50.734;7.086;2022-08-05T09:21:22;21.39;80.75
68801;SHT31;55784;50.734;7.086;2022-08-05T09:24:04;21.35;80.81
68801;SHT31;55784;50.734;7.086;2022-08-05T09:26:32;21.20;79.90
68801;SHT31;55784;50.734;7.086;2022-08-05T09:29:03;21.57;78.55
68801;SHT31;55784;50.734;7.086;2022-08-05T09:31:30;21.77;77.86
68801;SHT31;55784;50.734;7.086;2022-08-05T09:33:57;21.47;78.39
68801;SHT31;55784;50.734;7.086;2022-08-05T09:36:25;21.63;77.60
68801;SHT31;55784;50.734;7.086;2022-08-05T09:39:05;21.59;77.04
68801;SHT31;55784;50.734;7.086;2022-08-05T09:41:30;22.10;76.18
68801;SHT31;55784;50.734;7.086;2022-08-05T09:43:56;21.45;78.27
68801;SHT31;55784;50.734;7.086;2022-08-05T09:46:32;21.78;77.03
68801;SHT31;55784;50.734;7.086;2022-08-05T09:49:00;21.75;77.61
68801;SHT31;55784;50.734;7.086;2022-08-05T09:51:36;21.72;78.14
68801;SHT31;55784;50.734;7.086;2022-08-05T09:54:07;21.62;77.93
68801;SHT31;55784;50.734;7.086;2022-08-05T09:56:35;21.66;77.90
68801;SHT31;55784;50.734;7.086;2022-08-05T09:59:07;21.24;79.37
68801;SHT31;55784;50.734;7.086;2022-08-05T10:01:34;21.11;79.67
68801;SHT31;55784;50.734;7.086;2022-08-05T10:06:30;21.04;79.35
68801;SHT31;55784;50.734;7.086;2022-08-05T10:09:09;21.35;78.02
68801;SHT31;55784;50.734;7.086;2022-08-05T10:11:35;21.38;78.01
68801;SHT31;55784;50.734;7.086;2022-08-05T10:14:19;20.77;79.53
68801;SHT31;55784;50.734;7.086;2022-08-05T10:16:45;20.52;79.66
68801;SHT31;55784;50.734;7.086;2022-08-05T10:19:10;20.33;79.65
68801;SHT31;55784;50.734;7.086;2022-08-05T10:21:40;20.43;79.85
68801;SHT31;55784;50.734;7.086;2022-08-05T10:24:05;20.64;79.23
68801;SHT31;55784;50.734;7.086;2022-08-05T10:26:31;20.87;78.12
68801;SHT31;55784;50.734;7.086;2022-08-05T10:28:57;21.03;77.41
68801;SHT31;55784;50.734;7.086;2022-08-05T10:31:22;20.87;78.45
68801;SHT31;55784;50.734;7.086;2022-08-05T10:33:48;20.37;79.33
68801;SHT31;55784;50.734;7.086;2022-08-05T10:36:14;20.74;78.56
68801;SHT31;55784;50.734;7.086;2022-08-05T10:38:43;20.64;78.49
68801;SHT31;55784;50.734;7.086;2022-08-05T10:41:30;20.04;80.51
68801;SHT31;55784;50.734;7.086;2022-08-05T10:44:01;19.86;81.26
68801;SHT31;55784;50.734;7.086;2022-08-05T10:46:53;19.81;81.60
68801;SHT31;55784;50.734;7.086;2022-08-05T10:49:19;19.92;81.16
68801;SHT31;55784;50.734;7.086;2022-08-05T10:51:47;19.93;81.28
68801;SHT31;55784;50.734;7.086;2022-08-05T10:54:14;19.61;81.50
68801;SHT31;55784;50.734;7.086;2022-08-05T10:56:50;19.75;81.43
68801;SHT31;55784;50.734;7.086;2022-08-05T10:59:27;19.83;80.98
68801;SHT31;55784;50.734;7.086;2022-08-05T11:02:13;19.89;80.72
68801;SHT31;55784;50.734;7.086;2022-08-05T11:04:46;19.75;80.27
68801;SHT31;55784;50.734;7.086;2022-08-05T11:07:15;19.75;81.18
68801;SHT31;55784;50.734;7.086;2022-08-05T11:09:53;19.74;79.98
68801;SHT31;55784;50.734;7.086;2022-08-05T11:17:41;19.95;77.59
68801;SHT31;55784;50.734;7.086;2022-08-05T11:20:46;19.78;78.12
68801;SHT31;55784;50.734;7.086;2022-08-05T11:23:29;19.70;78.21
68801;SHT31;55784;50.734;7.086;2022-08-05T11:26:04;19.72;78.08
68801;SHT31;55784;50.734;7.086;2022-08-05T11:33:30;20.33;75.55
68801;SHT31;55784;50.734;7.086;2022-08-05T11:35:57;20.56;74.76
68801;SHT31;55784;50.734;7.086;2022-08-05T11:41:13;20.63;72.26
68801;SHT31;55784;50.734;7.086;2022-08-05T11:43:43;20.53;72.28
68801;SHT31;55784;50.734;7.086;2022-08-05T11:46:08;20.44;72.86
68801;SHT31;55784;50.734;7.086;2022-08-05T11:48:34;20.59;72.51
68801;SHT31;55784;50.734;7.086;2022-08-05T11:51:00;20.97;70.89
68801;SHT31;55784;50.734;7.086;2022-08-05T11:53:26;21.03;70.65
68801;SHT31;55784;50.734;7.086;2022-08-05T11:55:56;21.35;69.49
68801;SHT31;55784;50.734;7.086;2022-08-05T11:58:36;21.51;68.39
68801;SHT31;55784;50.734;7.086;2022-08-05T12:01:18;21.52;67.95
68801;SHT31;55784;50.734;7.086;2022-08-05T12:03:49;21.88;66.26
68801;SHT31;55784;50.734;7.086;2022-08-05T12:06:19;21.57;66.25
68801;SHT31;55784;50.734;7.086;2022-08-05T12:08:46;21.47;66.67
68801;SHT31;55784;50.734;7.086;2022-08-05T12:11:23;21.47;66.08
68801;SHT31;55784;50.734;7.086;2022-08-05T12:13:58;21.35;65.83
68801;SHT31;55784;50.734;7.086;2022-08-05T12:16:25;21.38;66.37
68801;SHT31;55784;50.734;7.086;2022-08-05T12:18:52;21.24;66.94
68801;SHT31;55784;50.734;7.086;2022-08-05T12:21:20;21.37;66.96
68801;SHT31;55784;50.734;7.086;2022-08-05T12:23:59;21.65;66.67
68801;SHT31;55784;50.734;7.086;2022-08-05T12:28:57;21.85;65.94
68801;SHT31;55784;50.734;7.086;2022-08-05T12:31:22;21.69;65.55
68801;SHT31;55784;50.734;7.086;2022-08-05T12:33:48;21.81;65.48
68801;SHT31;55784;50.734;7.086;2022-08-05T12:36:14;21.68;65.83
68801;SHT31;55784;50.734;7.086;2022-08-05T12:38:39;21.83;66.09
68801;SHT31;55784;50.734;7.086;2022-08-05T12:41:12;21.89;64.43
68801;SHT31;55784;50.734;7.086;2022-08-05T12:43:56;22.28;63.72
68801;SHT31;55784;50.734;7.086;2022-08-05T12:46:24;22.40;62.44
68801;SHT31;55784;50.734;7.086;2022-08-05T12:48:59;22.30;62.30
68801;SHT31;55784;50.734;7.086;2022-08-05T12:51:25;22.51;61.77
68801;SHT31;55784;50.734;7.086;2022-08-05T12:54:00;22.77;61.40
68801;SHT31;55784;50.734;7.086;2022-08-05T12:56:27;22.95;61.50
68801;SHT31;55784;50.734;7.086;2022-08-05T12:59:19;22.92;61.47
68801;SHT31;55784;50.734;7.086;2022-08-05T13:01:55;22.91;62.06
68801;SHT31;55784;50.734;7.086;2022-08-05T13:04:25;22.94;61.71
68801;SHT31;55784;50.734;7.086;2022-08-05T13:06:50;22.92;61.22
68801;SHT31;55784;50.734;7.086;2022-08-05T13:09:16;22.88;60.89
68801;SHT31;55784;50.734;7.086;2022-08-05T13:11:43;22.95;60.12
68801;SHT31;55784;50.734;7.086;2022-08-05T13:14:22;23.15;59.59
68801;SHT31;55784;50.734;7.086;2022-08-05T13:16:54;22.83;58.07
68801;SHT31;55784;50.734;7.086;2022-08-05T13:21:52;23.29;56.93
68801;SHT31;55784;50.734;7.086;2022-08-05T13:24:19;23.62;56.23
68801;SHT31;55784;50.734;7.086;2022-08-05T13:26:46;23.65;55.35
68801;SHT31;55784;50.734;7.086;2022-08-05T13:29:12;23.95;55.11
68801;SHT31;55784;50.734;7.086;2022-08-05T13:31:38;24.16;54.72
68801;SHT31;55784;50.734;7.086;2022-08-05T13:34:03;24.21;55.66
68801;SHT31;55784;50.734;7.086;2022-08-05T13:36:29;23.93;55.79
68801;SHT31;55784;50.734;7.086;2022-08-05T13:38:55;24.21;55.04
68801;SHT31;55784;50.734;7.086;2022-08-05T13:41:23;24.41;54.20
68801;SHT31;55784;50.734;7.086;2022-08-05T13:43:48;24.05;55.25
68801;SHT31;55784;50.734;7.086;2022-08-05T13:46:14;23.97;54.86
68801;SHT31;55784;50.734;7.086;2022-08-05T13:48:40;24.00;55.59
68801;SHT31;55784;50.734;7.086;2022-08-05T13:51:06;24.03;55.08
68801;SHT31;55784;50.734;7.086;2022-08-05T13:53:32;24.24;54.41
68801;SHT31;55784;50.734;7.086;2022-08-05T13:55:58;23.93;55.29
68801;SHT31;55784;50.734;7.086;2022-08-05T13:58:23;24.20;54.72
68801;SHT31;55784;50.734;7.086;2022-08-05T14:00:49;23.97;55.17
68801;SHT31;55784;50.734;7.086;2022-08-05T14:03:14;23.70;56.11
68801;SHT31;55784;50.734;7.086;2022-08-05T14:05:40;23.72;56.37
68801;SHT31;55784;50.734;7.086;2022-08-05T14:08:05;23.77;55.82
68801;SHT31;55784;50.734;7.086;2022-08-05T14:10:30;23.77;56.21
68801;SHT31;55784;50.734;7.086;2022-08-05T14:12:57;24.05;55.30
68801;SHT31;55784;50.734;7.086;2022-08-05T14:15:23;24.10;55.17
68801;SHT31;55784;50.734;7.086;2022-08-05T14:17:49;24.23;54.26
68801;SHT31;55784;50.734;7.086;2022-08-05T14:20:14;24.53;54.16
68801;SHT31;55784;50.734;7.086;2022-08-05T14:22:39;24.44;53.88
68801;SHT31;55784;50.734;7.086;2022-08-05T14:25:06;24.23;54.06
68801;SHT31;55784;50.734;7.086;2022-08-05T14:27:32;24.06;54.25
68801;SHT31;55784;50.734;7.086;2022-08-05T14:29:57;24.16;54.66
68801;SHT31;55784;50.734;7.086;2022-08-05T14:32:22;24.36;53.74
68801;SHT31;55784;50.734;7.086;2022-08-05T14:34:48;24.54;53.65
68801;SHT31;55784;50.734;7.086;2022-08-05T14:37:13;24.84;53.14
68801;SHT31;55784;50.734;7.086;2022-08-05T14:39:38;24.50;54.40
68801;SHT31;55784;50.734;7.086;2022-08-05T14:42:04;24.02;55.36
68801;SHT31;55784;50.734;7.086;2022-08-05T14:44:30;24.27;54.81
68801;SHT31;55784;50.734;7.086;2022-08-05T14:46:55;24.60;54.04
68801;SHT31;55784;50.734;7.086;2022-08-05T14:49:21;24.75;53.74
68801;SHT31;55784;50.734;7.086;2022-08-05T14:51:46;24.23;53.89
68801;SHT31;55784;50.734;7.086;2022-08-05T14:54:11;24.31;54.25
68801;SHT31;55784;50.734;7.086;2022-08-05T14:56:37;24.36;53.72
68801;SHT31;55784;50.734;7.086;2022-08-05T14:59:02;24.77;53.09
68801;SHT31;55784;50.734;7.086;2022-08-05T15:01:28;25.01;52.54
68801;SHT31;55784;50.734;7.086;2022-08-05T15:03:53;24.53;52.51
68801;SHT31;55784;50.734;7.086;2022-08-05T15:06:19;24.47;52.78
68801;SHT31;55784;50.734;7.086;2022-08-05T15:08:44;24.28;52.74
68801;SHT31;55784;50.734;7.086;2022-08-05T15:11:10;24.24;54.19
68801;SHT31;55784;50.734;7.086;2022-08-05T15:13:35;23.92;55.64
68801;SHT31;55784;50.734;7.086;2022-08-05T15:16:01;24.05;54.98
68801;SHT31;55784;50.734;7.086;2022-08-05T15:18:27;23.62;55.80
68801;SHT31;55784;50.734;7.086;2022-08-05T15:20:52;23.58;55.53
68801;SHT31;55784;50.734;7.086;2022-08-05T15:23:18;23.39;57.16
68801;SHT31;55784;50.734;7.086;2022-08-05T15:25:43;23.28;57.10
68801;SHT31;55784;50.734;7.086;2022-08-05T15:28:09;23.34;57.52
68801;SHT31;55784;50.734;7.086;2022-08-05T15:30:35;23.61;56.49
68801;SHT31;55784;50.734;7.086;2022-08-05T15:33:03;23.65;56.29
68801;SHT31;55784;50.734;7.086;2022-08-05T15:35:30;23.51;54.72
68801;SHT31;55784;50.734;7.086;2022-08-05T15:37:56;23.72;53.05
68801;SHT31;55784;50.734;7.086;2022-08-05T15:40:22;23.73;51.79
68801;SHT31;55784;50.734;7.086;2022-08-05T15:42:47;23.65;50.39
68801;SHT31;55784;50.734;7.086;2022-08-05T15:45:13;23.85;49.96
68801;SHT31;55784;50.734;7.086;2022-08-05T15:47:42;23.58;50.08
68801;SHT31;55784;50.734;7.086;2022-08-05T15:50:09;23.48;49.77
68801;SHT31;55784;50.734;7.086;2022-08-05T15:52:35;23.34;49.00
68801;SHT31;55784;50.734;7.086;2022-08-05T15:55:03;23.22;49.71
68801;SHT31;55784;50.734;7.086;2022-08-05T15:57:29;23.28;49.65
68801;SHT31;55784;50.734;7.086;2022-08-05T15:59:54;23.35;49.59
68801;SHT31;55784;50.734;7.086;2022-08-05T16:02:20;23.26;50.51
68801;SHT31;55784;50.734;7.086;2022-08-05T16:04:46;23.25;50.69
68801;SHT31;55784;50.734;7.086;2022-08-05T16:07:12;23.31;50.90
68801;SHT31;55784;50.734;7.086;2022-08-05T16:09:38;23.19;51.25
68801;SHT31;55784;50.734;7.086;2022-08-05T16:12:08;23.24;50.87
68801;SHT31;55784;50.734;7.086;2022-08-05T16:14:34;23.21;51.00
68801;SHT31;55784;50.734;7.086;2022-08-05T16:17:00;23.24;50.83
68801;SHT31;55784;50.734;7.086;2022-08-05T16:19:26;23.19;50.82
68801;SHT31;55784;50.734;7.086;2022-08-05T16:21:54;23.10;50.95
68801;SHT31;55784;50.734;7.086;2022-08-05T16:24:20;23.11;50.54
68801;SHT31;55784;50.734;7.086;2022-08-05T16:29:15;23.19;50.34
68801;SHT31;55784;50.734;7.086;2022-08-05T16:31:40;23.21;50.31
68801;SHT31;55784;50.734;7.086;2022-08-05T16:34:05;23.38;50.43